Time;durP1;ratioP1;P1;durP2;ratioP2;P2;SDS_P1;SDS_P2;PMS_P1;PMS_P2;Temp;Humidity;BMP_temperature;BMP_pressure;BME280_temperature;BME280_humidity;BME280_pressure;Samples;Min_cycle;Max_cycle;Signal;HPM_P1;HPM_P2
2023/04/21 00:01:26;;;;;;;27.80;18.33;;;;;;;;;;5013913;28;20033;-73
2023/04/21 00:03:54;;;;;;;26.23;18.08;;;;;;;;;;5026311;28;20071;-73
2023/04/21 00:06:21;;;;;;;24.17;17.75;;;;;;;;;;5033736;28;20156;-73
2023/04/21 00:08:47;;;;;;;21.67;15.77;;;;;;;;;;5014648;28;20049;-73
2023/04/21 00:11:14;;;;;;;21.20;14.68;;;;;;;;;;5034086;28;20505;-73
2023/04/21 00:13:40;;;;;;;22.48;15.30;;;;;;;;;;5033344;28;20053;-74
2023/04/21 00:16:06;;;;;;;23.05;15.45;;;;;;;;;;5015625;28;20057;-73
2023/04/21 00:18:33;;;;;;;23.50;15.57;;;;;;;;;;5034387;28;20045;-73
2023/04/21 00:20:59;;;;;;;22.98;14.93;;;;;;;;;;5034069;28;20050;-73
2023/04/21 00:23:25;;;;;;;23.98;15.45;;;;;;;;;;5034052;28;20045;-73
2023/04/21 00:25:51;;;;;;;27.48;16.50;;;;;;;;;;5033610;28;20059;-73
2023/04/21 00:28:17;;;;;;;26.27;15.73;;;;;;;;;;5034015;28;20045;-73
2023/04/21 00:30:43;;;;;;;20.77;15.13;;;;;;;;;;5031852;28;20041;-73
2023/04/21 00:33:09;;;;;;;21.45;15.57;;;;;;;;;;5054099;28;20068;-73
2023/04/21 00:35:35;;;;;;;25.13;15.40;;;;;;;;;;5053847;28;20049;-73
2023/04/21 00:38:01;;;;;;;24.00;15.52;;;;;;;;;;5036254;28;20044;-73
2023/04/21 00:40:27;;;;;;;23.38;15.73;;;;;;;;;;5053782;28;20041;-73
2023/04/21 00:42:53;;;;;;;24.73;15.93;;;;;;;;;;5019606;28;20045;-73
2023/04/21 00:45:19;;;;;;;27.45;15.93;;;;;;;;;;5053536;28;20041;-73
2023/04/21 00:47:45;;;;;;;27.13;15.50;;;;;;;;;;5054124;28;20087;-73
2023/04/21 00:50:12;;;;;;;23.88;15.60;;;;;;;;;;5053666;28;20076;-73
2023/04/21 00:52:42;;;;;;;25.30;16.27;;;;;;;;;;5029643;28;20127;-73
2023/04/21 00:55:09;;;;;;;24.23;16.90;;;;;;;;;;5048914;28;20128;-73
2023/04/21 00:57:36;;;;;;;23.25;16.08;;;;;;;;;;5025583;28;20064;-73
2023/04/21 01:00:04;;;;;;;23.73;16.48;;;;;;;;;;5032273;28;20121;-73
2023/04/21 01:02:30;;;;;;;25.48;16.65;;;;;;;;;;5043062;28;20095;-73
2023/04/21 01:04:56;;;;;;;23.80;16.95;;;;;;;;;;5053287;28;20108;-72
2023/04/21 01:07:24;;;;;;;24.65;16.30;;;;;;;;;;5053049;28;20053;-72
2023/04/21 01:09:50;;;;;;;26.95;16.95;;;;;;;;;;5052718;28;20049;-72
2023/04/21 01:12:16;;;;;;;26.13;17.05;;;;;;;;;;5050288;28;20383;-72
2023/04/21 01:14:42;;;;;;;24.70;16.08;;;;;;;;;;5052440;28;20457;-73
2023/04/21 01:17:09;;;;;;;25.58;16.73;;;;;;;;;;5049105;28;20576;-73
2023/04/21 01:19:40;;;;;;;24.30;16.27;;;;;;;;;;5028472;28;20045;-72
2023/04/21 01:22:10;;;;;;;25.25;16.73;;;;;;;;;;5053452;28;20052;-72
2023/04/21 01:24:43;;;;;;;26.67;16.27;;;;;;;;;;5044794;28;20041;-72
2023/04/21 01:27:10;;;;;;;25.55;15.75;;;;;;;;;;5053409;28;20536;-74
2023/04/21 01:29:36;;;;;;;24.35;17.20;;;;;;;;;;5053451;28;20037;-73
2023/04/21 01:32:13;;;;;;;23.30;16.05;;;;;;;;;;5053265;28;20057;-74
2023/04/21 01:34:42;;;;;;;24.73;16.92;;;;;;;;;;5025432;28;20057;-74
2023/04/21 01:37:08;;;;;;;22.00;15.77;;;;;;;;;;5033690;28;20045;-74
2023/04/21 01:39:37;;;;;;;23.13;15.45;;;;;;;;;;5015268;28;20107;-74
2023/04/21 01:42:03;;;;;;;24.63;16.77;;;;;;;;;;5033176;28;20038;-74
2023/04/21 01:44:29;;;;;;;26.00;16.60;;;;;;;;;;5033166;28;20047;-74
2023/04/21 01:46:55;;;;;;;21.63;15.15;;;;;;;;;;5033103;28;20034;-73
2023/04/21 01:49:21;;;;;;;23.08;15.45;;;;;;;;;;5043597;28;20486;-73
2023/04/21 01:51:47;;;;;;;22.77;15.70;;;;;;;;;;5053099;28;20041;-74
2023/04/21 01:54:14;;;;;;;23.85;15.20;;;;;;;;;;5024666;28;20453;-73
2023/04/21 01:56:40;;;;;;;23.45;15.20;;;;;;;;;;5012578;28;20393;-73
2023/04/21 01:59:06;;;;;;;22.00;15.55;;;;;;;;;;5013240;28;20042;-73
2023/04/21 02:01:32;;;;;;;21.92;15.43;;;;;;;;;;5014392;28;20048;-73
2023/04/21 02:03:58;;;;;;;22.45;15.40;;;;;;;;;;5015074;28;20128;-74
2023/04/21 02:06:24;;;;;;;21.42;14.98;;;;;;;;;;5033112;28;20565;-73
2023/04/21 02:08:50;;;;;;;20.85;15.63;;;;;;;;;;5052648;28;20254;-74
2023/04/21 02:11:16;;;;;;;20.75;15.20;;;;;;;;;;5018246;28;20048;-74
2023/04/21 02:13:42;;;;;;;23.80;15.82;;;;;;;;;;5053030;28;20048;-73
2023/04/21 02:16:08;;;;;;;21.15;15.85;;;;;;;;;;5035022;28;20044;-74
2023/04/21 02:18:38;;;;;;;27.88;15.70;;;;;;;;;;5053023;28;20404;-74
2023/04/21 02:21:04;;;;;;;22.85;15.40;;;;;;;;;;5052740;28;20057;-74
2023/04/21 02:23:30;;;;;;;24.13;16.23;;;;;;;;;;5047982;28;20045;-74
2023/04/21 02:25:56;;;;;;;24.65;15.50;;;;;;;;;;5013556;28;20099;-74
2023/04/21 02:28:22;;;;;;;21.10;15.65;;;;;;;;;;5032882;28;20044;-74
2023/04/21 02:30:48;;;;;;;29.08;17.30;;;;;;;;;;5032139;28;20425;-73
2023/04/21 02:33:14;;;;;;;25.58;15.50;;;;;;;;;;5045266;28;20071;-73
2023/04/21 02:35:40;;;;;;;23.63;15.23;;;;;;;;;;5032567;28;20049;-73
2023/04/21 02:38:07;;;;;;;27.35;15.80;;;;;;;;;;5032091;28;20048;-73
2023/04/21 02:40:33;;;;;;;25.27;15.70;;;;;;;;;;5028316;28;20119;-74
2023/04/21 02:43:00;;;;;;;26.17;15.82;;;;;;;;;;5014847;28;20426;-74
2023/04/21 02:45:26;;;;;;;24.80;15.90;;;;;;;;;;5002599;28;20049;-73
2023/04/21 02:47:52;;;;;;;22.90;16.30;;;;;;;;;;5014663;28;20433;-73
2023/04/21 02:50:18;;;;;;;23.40;15.90;;;;;;;;;;5032529;28;20079;-72
2023/04/21 02:52:44;;;;;;;26.92;16.90;;;;;;;;;;5049970;28;20041;-72
2023/04/21 02:55:10;;;;;;;24.88;16.20;;;;;;;;;;5016151;28;20080;-72
2023/04/21 02:57:36;;;;;;;22.80;16.27;;;;;;;;;;5032213;28;20398;-73
2023/04/21 03:00:03;;;;;;;23.75;16.42;;;;;;;;;;5052052;28;20120;-74
2023/04/21 03:02:30;;;;;;;24.63;17.15;;;;;;;;;;5032115;28;20037;-73
2023/04/21 03:04:56;;;;;;;25.52;16.10;;;;;;;;;;5050829;28;20383;-74
2023/04/21 03:07:22;;;;;;;24.42;16.52;;;;;;;;;;5050028;28;20056;-73
2023/04/21 03:09:48;;;;;;;24.33;16.63;;;;;;;;;;5039143;28;20049;-74
2023/04/21 03:12:14;;;;;;;26.40;17.77;;;;;;;;;;5029621;28;20037;-73
2023/04/21 03:14:40;;;;;;;26.23;17.20;;;;;;;;;;5033437;28;20132;-73
2023/04/21 03:17:07;;;;;;;22.80;15.88;;;;;;;;;;5038933;28;20050;-73
2023/04/21 03:19:33;;;;;;;22.08;15.65;;;;;;;;;;5040989;28;20047;-73
2023/04/21 03:21:59;;;;;;;23.98;15.85;;;;;;;;;;5054006;28;20393;-73
2023/04/21 03:24:25;;;;;;;23.63;16.02;;;;;;;;;;5054164;28;20059;-73
2023/04/21 03:26:51;;;;;;;21.20;14.93;;;;;;;;;;5012073;28;20042;-73
2023/04/21 03:29:17;;;;;;;24.35;15.65;;;;;;;;;;5045906;28;20581;-73
2023/04/21 03:31:43;;;;;;;27.48;14.65;;;;;;;;;;5055379;28;20044;-73
2023/04/21 03:34:10;;;;;;;21.60;14.93;;;;;;;;;;5037386;28;20045;-73
2023/04/21 03:36:36;;;;;;;21.27;14.40;;;;;;;;;;5055285;28;20045;-73
2023/04/21 03:39:02;;;;;;;24.10;14.60;;;;;;;;;;5054953;28;20375;-73
2023/04/21 03:41:29;;;;;;;21.48;15.13;;;;;;;;;;5054878;28;20045;-73
2023/04/21 03:43:55;;;;;;;21.65;14.75;;;;;;;;;;5037323;28;20059;-73
2023/04/21 03:46:21;;;;;;;22.85;13.73;;;;;;;;;;5055055;28;20040;-73
2023/04/21 03:48:47;;;;;;;24.50;14.52;;;;;;;;;;5055274;28;20151;-73
2023/04/21 03:51:14;;;;;;;22.10;14.60;;;;;;;;;;5055314;28;20124;-73
2023/04/21 03:53:41;;;;;;;21.25;14.23;;;;;;;;;;5047790;28;20050;-73
2023/04/21 03:56:07;;;;;;;22.23;14.18;;;;;;;;;;5035386;28;20045;-74
2023/04/21 03:58:34;;;;;;;20.33;14.07;;;;;;;;;;5018033;28;20384;-73
2023/04/21 04:01:00;;;;;;;26.27;14.55;;;;;;;;;;5046483;28;20045;-73
2023/04/21 04:03:26;;;;;;;23.42;14.55;;;;;;;;;;5036430;28;20481;-73
2023/04/21 04:05:52;;;;;;;24.05;14.13;;;;;;;;;;5036340;28;20091;-71
2023/04/21 04:08:18;;;;;;;25.70;14.63;;;;;;;;;;5054900;28;20107;-75
2023/04/21 04:10:44;;;;;;;20.27;14.45;;;;;;;;;;5036841;28;20044;-73
2023/04/21 04:13:11;;;;;;;20.60;14.25;;;;;;;;;;5055260;28;20053;-74
2023/04/21 04:15:37;;;;;;;24.42;13.93;;;;;;;;;;5037106;28;20037;-74
2023/04/21 04:18:03;;;;;;;23.73;13.82;;;;;;;;;;5020058;28;20568;-73
2023/04/21 04:20:29;;;;;;;25.95;13.88;;;;;;;;;;5036228;28;20045;-73
2023/04/21 04:22:55;;;;;;;22.67;14.70;;;;;;;;;;5036609;28;20419;-73
2023/04/21 04:25:21;;;;;;;22.63;13.80;;;;;;;;;;5054365;28;20041;-73
2023/04/21 04:27:49;;;;;;;22.30;14.02;;;;;;;;;;5036074;28;20041;-73
2023/04/21 04:30:15;;;;;;;24.23;13.40;;;;;;;;;;5054263;28;20410;-74
2023/04/21 04:32:41;;;;;;;22.77;13.65;;;;;;;;;;5046361;28;20060;-73
2023/04/21 04:35:08;;;;;;;21.00;13.32;;;;;;;;;;5052940;28;20501;-73
2023/04/21 04:37:37;;;;;;;23.20;14.45;;;;;;;;;;5054021;28;20048;-73
2023/04/21 04:40:13;;;;;;;23.75;13.63;;;;;;;;;;5052822;28;20124;-73
2023/04/21 04:42:39;;;;;;;20.42;13.07;;;;;;;;;;5052662;28;20378;-73
2023/04/21 04:45:07;;;;;;;21.98;12.80;;;;;;;;;;5033278;28;20099;-73
2023/04/21 04:47:33;;;;;;;23.00;13.95;;;;;;;;;;5054241;28;20085;-73
2023/04/21 04:49:59;;;;;;;21.75;13.32;;;;;;;;;;5053085;28;20045;-73
2023/04/21 04:52:25;;;;;;;23.83;13.48;;;;;;;;;;5052652;28;20048;-74
2023/04/21 04:54:51;;;;;;;18.08;12.95;;;;;;;;;;5047158;28;20119;-73
2023/04/21 04:57:17;;;;;;;24.08;12.32;;;;;;;;;;5053719;28;20080;-72
2023/04/21 04:59:43;;;;;;;22.15;12.52;;;;;;;;;;5053798;28;20083;-72
2023/04/21 05:02:09;;;;;;;21.40;12.90;;;;;;;;;;5049786;28;20445;-72
2023/04/21 05:04:36;;;;;;;22.80;12.20;;;;;;;;;;5055825;28;20041;-72
2023/04/21 05:07:02;;;;;;;22.27;12.60;;;;;;;;;;5054686;28;20060;-72
2023/04/21 05:09:28;;;;;;;20.65;12.20;;;;;;;;;;5043583;28;20045;-74
2023/04/21 05:11:54;;;;;;;21.92;12.75;;;;;;;;;;5053445;28;20068;-73
2023/04/21 05:14:20;;;;;;;22.10;12.77;;;;;;;;;;5034740;28;20425;-73
2023/04/21 05:16:46;;;;;;;22.27;12.32;;;;;;;;;;5052799;28;20060;-73
2023/04/21 05:19:12;;;;;;;19.33;12.43;;;;;;;;;;5051149;28;20045;-72
2023/04/21 05:21:38;;;;;;;20.17;12.10;;;;;;;;;;5051556;28;20163;-72
2023/04/21 05:24:04;;;;;;;22.33;11.80;;;;;;;;;;5047855;28;20539;-73
2023/04/21 05:26:30;;;;;;;17.25;11.75;;;;;;;;;;5044149;28;20051;-72
2023/04/21 05:28:57;;;;;;;26.33;12.57;;;;;;;;;;5035321;28;20053;-73
2023/04/21 05:31:26;;;;;;;20.58;11.77;;;;;;;;;;5050891;28;20048;-73
2023/04/21 05:33:52;;;;;;;17.38;11.85;;;;;;;;;;5031356;28;20409;-73
2023/04/21 05:36:23;;;;;;;21.75;12.95;;;;;;;;;;5052272;28;20045;-73
2023/04/21 05:38:49;;;;;;;18.58;11.85;;;;;;;;;;5053097;28;20048;-73
2023/04/21 05:41:15;;;;;;;16.65;11.85;;;;;;;;;;5041626;28;20045;-73
2023/04/21 05:43:41;;;;;;;18.75;11.52;;;;;;;;;;5044363;28;20048;-73
2023/04/21 05:46:08;;;;;;;21.55;12.10;;;;;;;;;;5051681;28;20123;-76
2023/04/21 05:48:35;;;;;;;19.40;11.82;;;;;;;;;;5052384;28;20052;-76
2023/04/21 05:51:08;;;;;;;16.35;10.82;;;;;;;;;;5047466;28;20039;-76
2023/04/21 05:53:34;;;;;;;23.33;10.68;;;;;;;;;;5036080;28;20449;-76
2023/04/21 05:56:00;;;;;;;17.92;10.98;;;;;;;;;;5048897;28;20111;-76
2023/04/21 05:58:26;;;;;;;25.33;12.40;;;;;;;;;;5053178;28;20062;-76
2023/04/21 06:00:52;;;;;;;20.25;11.15;;;;;;;;;;5052131;28;20074;-75
2023/04/21 06:03:18;;;;;;;24.13;12.18;;;;;;;;;;5052868;28;20120;-75
2023/04/21 06:05:44;;;;;;;18.95;10.90;;;;;;;;;;5045748;28;20476;-75
2023/04/21 06:08:10;;;;;;;20.02;11.57;;;;;;;;;;5052760;28;20056;-75
2023/04/21 06:10:36;;;;;;;18.08;11.43;;;;;;;;;;5052341;28;20041;-75
2023/04/21 06:13:02;;;;;;;16.67;10.90;;;;;;;;;;5048460;28;20056;-75
2023/04/21 06:15:28;;;;;;;18.08;11.35;;;;;;;;;;5043009;28;20563;-75
2023/04/21 06:17:54;;;;;;;17.42;10.60;;;;;;;;;;5052346;28;20489;-75
2023/04/21 06:20:20;;;;;;;15.82;10.23;;;;;;;;;;5050591;28;20087;-75
2023/04/21 06:22:46;;;;;;;19.67;11.00;;;;;;;;;;5052264;28;20116;-75
2023/04/21 06:25:12;;;;;;;20.23;10.63;;;;;;;;;;5048980;28;20128;-75
2023/04/21 06:27:38;;;;;;;19.48;11.07;;;;;;;;;;5044566;28;20097;-77
2023/04/21 06:30:05;;;;;;;20.27;10.68;;;;;;;;;;5051124;28;20102;-75
2023/04/21 06:32:31;;;;;;;20.63;10.60;;;;;;;;;;5043453;28;20053;-75
2023/04/21 06:34:57;;;;;;;17.77;10.10;;;;;;;;;;5051645;28;20047;-75
2023/04/21 06:37:23;;;;;;;18.65;10.23;;;;;;;;;;5033790;28;20053;-76
2023/04/21 06:39:49;;;;;;;21.73;10.95;;;;;;;;;;5050949;28;20040;-75
2023/04/21 06:42:15;;;;;;;17.45;10.43;;;;;;;;;;5034359;28;20497;-76
2023/04/21 06:44:44;;;;;;;18.17;10.20;;;;;;;;;;5052279;28;20052;-75
2023/04/21 06:47:10;;;;;;;16.38;10.10;;;;;;;;;;5050814;28;20493;-75
2023/04/21 06:49:36;;;;;;;16.92;10.25;;;;;;;;;;5052057;28;20425;-76
2023/04/21 06:52:03;;;;;;;16.13;9.95;;;;;;;;;;5051495;28;20090;-75
2023/04/21 06:54:29;;;;;;;20.65;10.75;;;;;;;;;;5052496;28;20045;-75
2023/04/21 06:56:56;;;;;;;19.48;10.82;;;;;;;;;;5056100;28;20047;-76
2023/04/21 06:59:22;;;;;;;17.10;10.30;;;;;;;;;;5055818;28;20053;-76
2023/04/21 07:01:51;;;;;;;18.13;10.43;;;;;;;;;;5054258;28;20093;-76
2023/04/21 07:04:17;;;;;;;20.00;10.57;;;;;;;;;;5054682;28;20140;-76
2023/04/21 07:06:43;;;;;;;16.25;10.55;;;;;;;;;;5054154;28;20448;-76
2023/04/21 07:09:09;;;;;;;15.77;9.88;;;;;;;;;;5054604;28;20404;-76
2023/04/21 07:11:35;;;;;;;20.33;10.85;;;;;;;;;;5054481;28;20375;-76
2023/04/21 07:14:01;;;;;;;19.13;10.65;;;;;;;;;;5054178;28;20041;-76
2023/04/21 07:16:28;;;;;;;20.02;10.25;;;;;;;;;;5054378;28;20105;-76
2023/04/21 07:18:54;;;;;;;17.40;10.70;;;;;;;;;;5036967;28;20071;-76
2023/04/21 07:21:20;;;;;;;15.52;10.10;;;;;;;;;;5053581;28;20048;-76
2023/04/21 07:23:46;;;;;;;18.08;9.75;;;;;;;;;;5052821;28;20114;-76
2023/04/21 07:26:12;;;;;;;20.50;10.40;;;;;;;;;;5055143;28;20045;-76
2023/04/21 07:28:41;;;;;;;18.08;10.15;;;;;;;;;;5054625;28;20062;-76
2023/04/21 07:31:07;;;;;;;18.80;10.18;;;;;;;;;;5054215;28;20059;-76
2023/04/21 07:33:33;;;;;;;17.25;10.13;;;;;;;;;;5055502;28;20056;-76
2023/04/21 07:35:59;;;;;;;18.80;11.10;;;;;;;;;;5036905;28;20075;-76
2023/04/21 07:38:25;;;;;;;20.77;10.30;;;;;;;;;;5037029;28;20041;-76
2023/04/21 07:40:59;;;;;;;17.70;10.65;;;;;;;;;;5021712;28;20045;-76
2023/04/21 07:43:29;;;;;;;15.45;9.15;;;;;;;;;;5037615;28;20099;-76
2023/04/21 07:45:55;;;;;;;17.90;9.85;;;;;;;;;;5037103;28;20136;-75
2023/04/21 07:48:21;;;;;;;18.85;10.15;;;;;;;;;;5055174;28;20048;-77
2023/04/21 07:50:49;;;;;;;14.98;9.88;;;;;;;;;;5036950;28;20051;-76
2023/04/21 07:53:15;;;;;;;18.77;10.73;;;;;;;;;;5034378;28;20125;-76
2023/04/21 07:55:41;;;;;;;15.75;9.27;;;;;;;;;;5037003;28;20048;-76
2023/04/21 07:58:09;;;;;;;18.35;10.07;;;;;;;;;;5036335;28;20373;-76
2023/04/21 08:00:35;;;;;;;19.73;10.23;;;;;;;;;;5035761;28;20110;-75
2023/04/21 08:03:01;;;;;;;15.15;9.48;;;;;;;;;;5036946;28;20392;-75
2023/04/21 08:05:28;;;;;;;15.43;9.45;;;;;;;;;;5037091;28;20052;-74
2023/04/21 08:07:54;;;;;;;21.30;9.70;;;;;;;;;;5037166;28;20052;-75
2023/04/21 08:10:20;;;;;;;19.00;9.13;;;;;;;;;;5036786;28;20053;-75
2023/04/21 08:12:46;;;;;;;18.90;9.68;;;;;;;;;;5055087;28;20434;-75
2023/04/21 08:15:12;;;;;;;19.33;9.20;;;;;;;;;;5054921;28;20047;-75
2023/04/21 08:17:39;;;;;;;16.80;9.05;;;;;;;;;;5020971;28;20049;-75
2023/04/21 08:20:06;;;;;;;16.98;9.35;;;;;;;;;;5036482;28;20103;-76
2023/04/21 08:22:32;;;;;;;23.20;9.43;;;;;;;;;;5036969;28;20140;-76
2023/04/21 08:24:58;;;;;;;17.80;9.70;;;;;;;;;;5054401;28;20493;-76
2023/04/21 08:27:24;;;;;;;17.98;9.95;;;;;;;;;;5036819;28;20045;-76
2023/04/21 08:29:51;;;;;;;15.82;9.10;;;;;;;;;;5053629;28;20048;-76
2023/04/21 08:32:22;;;;;;;20.38;9.73;;;;;;;;;;5054179;28;20092;-75
2023/04/21 08:34:49;;;;;;;16.13;8.73;;;;;;;;;;5036008;28;20084;-76
2023/04/21 08:37:15;;;;;;;15.90;9.10;;;;;;;;;;5054063;28;20098;-76
2023/04/21 08:39:41;;;;;;;20.58;9.77;;;;;;;;;;5054101;28;20041;-76
2023/04/21 08:42:07;;;;;;;18.60;9.60;;;;;;;;;;5052754;28;20048;-77
2023/04/21 08:44:33;;;;;;;17.30;9.27;;;;;;;;;;5035845;28;20061;-77
2023/04/21 08:47:00;;;;;;;19.75;9.32;;;;;;;;;;5036389;28;20506;-78
2023/04/21 08:49:28;;;;;;;16.27;8.63;;;;;;;;;;5053903;28;20091;-78
2023/04/21 08:51:55;;;;;;;15.25;9.23;;;;;;;;;;5054245;28;20478;-74
2023/04/21 08:54:21;;;;;;;19.20;9.10;;;;;;;;;;5041104;28;20050;-77
2023/04/21 08:56:48;;;;;;;13.15;7.82;;;;;;;;;;5034280;28;20171;-77
2023/04/21 08:59:14;;;;;;;17.25;8.93;;;;;;;;;;5033369;28;20049;-76
2023/04/21 09:01:59;;;;;;;15.27;8.60;;;;;;;;;;5033847;28;20395;-77
2023/04/21 09:04:25;;;;;;;17.70;8.20;;;;;;;;;;5015942;28;20107;-76
2023/04/21 09:06:51;;;;;;;19.05;8.63;;;;;;;;;;5016333;28;20394;-76
2023/04/21 09:09:17;;;;;;;15.73;8.45;;;;;;;;;;5033411;28;20056;-76
2023/04/21 09:11:43;;;;;;;16.02;9.38;;;;;;;;;;5023944;28;20049;-75
2023/04/21 09:14:10;;;;;;;19.45;8.65;;;;;;;;;;5049916;28;20052;-75
2023/04/21 09:16:36;;;;;;;17.90;8.75;;;;;;;;;;5051279;28;20047;-76
2023/04/21 09:19:02;;;;;;;15.50;8.80;;;;;;;;;;5049477;28;20041;-76
2023/04/21 09:21:28;;;;;;;18.02;8.95;;;;;;;;;;5053463;28;20120;-77
2023/04/21 09:23:55;;;;;;;14.25;8.65;;;;;;;;;;5035199;28;20044;-77
2023/04/21 09:26:21;;;;;;;19.75;8.25;;;;;;;;;;5053444;28;20114;-75
2023/04/21 09:28:48;;;;;;;15.38;8.18;;;;;;;;;;5051691;28;20047;-77
2023/04/21 09:31:15;;;;;;;12.52;7.53;;;;;;;;;;5033875;28;20049;-79
2023/04/21 09:33:48;;;;;;;12.10;7.70;;;;;;;;;;5028284;28;20057;-76
2023/04/21 09:36:19;;;;;;;14.15;7.30;;;;;;;;;;5047166;28;20045;-77
2023/04/21 09:38:55;;;;;;;12.95;7.05;;;;;;;;;;5066976;28;20100;-77
2023/04/21 09:41:22;;;;;;;16.25;6.97;;;;;;;;;;5048038;28;20114;-76
2023/04/21 09:43:48;;;;;;;11.65;6.28;;;;;;;;;;5042024;28;20464;-77
2023/04/21 09:46:17;;;;;;;13.90;6.00;;;;;;;;;;5051561;28;20041;-76
2023/04/21 09:48:44;;;;;;;12.93;6.30;;;;;;;;;;5052135;28;20497;-77
2023/04/21 09:51:14;;;;;;;14.40;6.03;;;;;;;;;;5050015;28;20049;-76
2023/04/21 09:53:41;;;;;;;10.65;6.07;;;;;;;;;;5017987;28;20477;-77
2023/04/21 09:56:12;;;;;;;14.00;6.20;;;;;;;;;;5034873;28;20394;-77
2023/04/21 09:58:46;;;;;;;11.77;6.25;;;;;;;;;;5050892;28;20049;-77
2023/04/21 10:01:13;;;;;;;15.38;6.30;;;;;;;;;;5032738;28;20044;-77
2023/04/21 10:03:39;;;;;;;11.20;5.65;;;;;;;;;;5051761;28;20076;-78
2023/04/21 10:06:06;;;;;;;15.15;5.90;;;;;;;;;;5026337;28;20087;-77
2023/04/21 10:08:32;;;;;;;13.15;5.57;;;;;;;;;;5000096;28;20056;-77
2023/04/21 10:10:59;;;;;;;10.40;5.70;;;;;;;;;;5017441;28;20045;-77
2023/04/21 10:13:25;;;;;;;12.30;5.60;;;;;;;;;;5052177;28;20049;-77
2023/04/21 10:16:02;;;;;;;10.10;5.78;;;;;;;;;;5051765;28;20045;-77
2023/04/21 10:18:33;;;;;;;11.40;5.65;;;;;;;;;;5031796;28;20052;-78
2023/04/21 10:21:01;;;;;;;13.52;6.25;;;;;;;;;;5028452;28;20501;-76
2023/04/21 10:23:27;;;;;;;13.32;5.63;;;;;;;;;;5033644;28;20052;-78
2023/04/21 10:25:59;;;;;;;9.90;5.43;;;;;;;;;;5051714;28;20044;-78
2023/04/21 10:28:38;;;;;;;10.18;5.35;;;;;;;;;;5051202;28;20102;-78
2023/04/21 10:31:23;;;;;;;11.43;5.82;;;;;;;;;;5057645;28;20120;-77
2023/04/21 10:34:07;;;;;;;11.35;5.82;;;;;;;;;;5040911;28;20090;-78
2023/04/21 10:36:46;;;;;;;12.07;5.72;;;;;;;;;;5058787;28;20102;-78
2023/04/21 10:39:24;;;;;;;11.50;5.30;;;;;;;;;;5058608;28;20094;-77
2023/04/21 10:41:50;;;;;;;10.95;5.15;;;;;;;;;;5074179;28;20424;-76
2023/04/21 10:44:16;;;;;;;10.68;5.63;;;;;;;;;;5078436;28;20489;-76
2023/04/21 10:46:47;;;;;;;11.18;5.50;;;;;;;;;;5078243;28;20489;-75
2023/04/21 10:49:23;;;;;;;12.95;5.55;;;;;;;;;;5072813;28;20587;-75
2023/04/21 10:51:58;;;;;;;8.20;5.15;;;;;;;;;;5053154;28;20052;-75
2023/04/21 10:54:25;;;;;;;13.77;5.32;;;;;;;;;;5036656;28;20197;-74
2023/04/21 10:56:52;;;;;;;12.95;5.22;;;;;;;;;;5045559;28;20037;-74
2023/04/21 10:59:18;;;;;;;12.10;5.10;;;;;;;;;;5029680;28;20060;-74
2023/04/21 11:01:44;;;;;;;10.55;5.55;;;;;;;;;;5043574;28;20033;-74
2023/04/21 11:04:14;;;;;;;8.52;5.03;;;;;;;;;;5044655;28;20063;-74
2023/04/21 11:06:40;;;;;;;10.00;5.05;;;;;;;;;;5041056;28;20497;-75
2023/04/21 11:09:06;;;;;;;11.32;5.05;;;;;;;;;;5054500;28;20048;-75
2023/04/21 11:11:33;;;;;;;11.88;5.32;;;;;;;;;;5062846;28;20570;-76
2023/04/21 11:14:00;;;;;;;11.88;5.22;;;;;;;;;;5064467;28;20064;-76
2023/04/21 11:16:26;;;;;;;12.07;5.10;;;;;;;;;;5062948;28;20048;-76
2023/04/21 11:18:52;;;;;;;11.93;5.22;;;;;;;;;;5054689;28;20120;-77
2023/04/21 11:21:20;;;;;;;9.95;4.80;;;;;;;;;;5057037;28;20385;-76
2023/04/21 11:23:51;;;;;;;11.75;5.13;;;;;;;;;;5038651;28;20049;-76
2023/04/21 11:26:17;;;;;;;13.20;5.07;;;;;;;;;;5058352;28;20167;-76
2023/04/21 11:28:46;;;;;;;11.20;5.00;;;;;;;;;;5040282;28;20574;-76
2023/04/21 11:31:12;;;;;;;8.57;4.43;;;;;;;;;;5058145;28;20112;-76
2023/04/21 11:33:39;;;;;;;14.13;4.80;;;;;;;;;;5040197;28;20128;-76
2023/04/21 11:36:08;;;;;;;10.48;4.90;;;;;;;;;;5058312;28;20049;-77
2023/04/21 11:38:38;;;;;;;12.38;4.60;;;;;;;;;;5058175;28;20060;-77
2023/04/21 11:41:05;;;;;;;13.23;4.80;;;;;;;;;;5053979;28;20045;-77
2023/04/21 11:43:31;;;;;;;15.20;4.80;;;;;;;;;;5055338;28;20366;-77
2023/04/21 11:46:16;;;;;;;12.43;4.53;;;;;;;;;;5055231;28;20489;-75
2023/04/21 11:48:42;;;;;;;11.63;4.50;;;;;;;;;;5036543;28;20524;-78
2023/04/21 11:51:16;;;;;;;9.98;4.70;;;;;;;;;;5036931;28;20041;-77
2023/04/21 11:53:42;;;;;;;7.63;4.07;;;;;;;;;;5030231;28;20119;-77
2023/04/21 11:56:10;;;;;;;9.02;4.40;;;;;;;;;;5034566;28;20526;-77
2023/04/21 11:58:37;;;;;;;11.63;4.38;;;;;;;;;;5016742;28;20137;-77
2023/04/21 12:01:09;;;;;;;11.82;4.60;;;;;;;;;;5036508;28;20158;-76
2023/04/21 12:03:35;;;;;;;12.35;4.30;;;;;;;;;;5036787;28;20053;-76
2023/04/21 12:06:01;;;;;;;8.98;4.13;;;;;;;;;;5054483;28;20127;-76
2023/04/21 12:08:31;;;;;;;9.55;4.30;;;;;;;;;;5031049;28;20135;-76
2023/04/21 12:11:00;;;;;;;11.60;4.00;;;;;;;;;;5074476;28;20553;-76
2023/04/21 12:13:30;;;;;;;9.68;3.95;;;;;;;;;;5074557;28;20056;-77
2023/04/21 12:15:56;;;;;;;9.60;3.97;;;;;;;;;;5056509;28;20052;-77
2023/04/21 12:18:26;;;;;;;10.77;3.85;;;;;;;;;;5074710;28;20059;-76
2023/04/21 12:20:52;;;;;;;9.60;4.22;;;;;;;;;;5055203;28;20041;-75
2023/04/21 12:23:19;;;;;;;12.48;4.00;;;;;;;;;;5074571;28;20040;-76
2023/04/21 12:25:45;;;;;;;13.95;4.13;;;;;;;;;;5074107;28;20044;-76
2023/04/21 12:28:12;;;;;;;8.02;4.50;;;;;;;;;;5074152;28;20044;-76
2023/04/21 12:30:38;;;;;;;13.68;4.68;;;;;;;;;;5055940;28;20112;-76
2023/04/21 12:33:04;;;;;;;15.93;4.78;;;;;;;;;;5074165;28;20119;-76
2023/04/21 12:35:32;;;;;;;12.43;4.30;;;;;;;;;;5074105;28;20051;-76
2023/04/21 12:37:58;;;;;;;10.10;5.00;;;;;;;;;;5074093;28;20044;-76
2023/04/21 12:40:24;;;;;;;11.02;4.43;;;;;;;;;;5051269;28;20100;-76
2023/04/21 12:42:50;;;;;;;8.68;4.10;;;;;;;;;;5053590;28;20055;-76
2023/04/21 12:45:16;;;;;;;12.52;3.97;;;;;;;;;;5034167;28;20490;-77
2023/04/21 12:47:42;;;;;;;5.40;3.70;;;;;;;;;;5068327;28;20052;-76
2023/04/21 12:50:10;;;;;;;12.60;3.55;;;;;;;;;;5059398;28;20045;-77
2023/04/21 12:52:36;;;;;;;10.15;3.53;;;;;;;;;;5034757;28;20064;-76
2023/04/21 12:55:02;;;;;;;9.25;3.25;;;;;;;;;;5029857;28;20132;-77
2023/04/21 12:57:28;;;;;;;10.73;3.45;;;;;;;;;;5035445;28;20536;-77
2023/04/21 12:59:54;;;;;;;12.75;3.63;;;;;;;;;;5035773;28;20524;-78
2023/04/21 13:02:20;;;;;;;8.38;3.65;;;;;;;;;;5053352;28;20048;-77
2023/04/21 13:04:46;;;;;;;9.73;3.63;;;;;;;;;;5053537;28;20465;-78
2023/04/21 13:07:14;;;;;;;9.23;3.63;;;;;;;;;;5036009;28;20060;-77
2023/04/21 13:09:40;;;;;;;9.80;3.58;;;;;;;;;;5035400;28;20048;-79
2023/04/21 13:12:07;;;;;;;8.02;3.38;;;;;;;;;;5052711;28;20500;-77
2023/04/21 13:14:33;;;;;;;9.77;3.63;;;;;;;;;;5050627;28;20045;-76
2023/04/21 13:16:59;;;;;;;9.27;3.58;;;;;;;;;;5035167;28;20047;-77
2023/04/21 13:19:25;;;;;;;8.30;3.42;;;;;;;;;;5053361;28;20486;-76
2023/04/21 13:21:51;;;;;;;13.07;3.20;;;;;;;;;;5051822;28;20136;-76
2023/04/21 13:24:17;;;;;;;10.80;3.67;;;;;;;;;;5051959;28;20207;-76
2023/04/21 13:26:43;;;;;;;9.65;3.10;;;;;;;;;;5052053;28;20084;-76
2023/04/21 13:29:10;;;;;;;9.00;3.50;;;;;;;;;;5052865;28;20057;-76
2023/04/21 13:31:36;;;;;;;13.00;3.58;;;;;;;;;;5052201;28;20045;-77
2023/04/21 13:34:02;;;;;;;8.73;3.30;;;;;;;;;;5052999;28;20404;-77
2023/04/21 13:36:28;;;;;;;11.25;3.45;;;;;;;;;;5035545;28;20053;-77
2023/04/21 13:38:55;;;;;;;11.02;3.15;;;;;;;;;;5034915;28;20059;-77
2023/04/21 13:41:21;;;;;;;11.00;3.40;;;;;;;;;;5034896;28;20049;-77
2023/04/21 13:43:47;;;;;;;11.82;3.50;;;;;;;;;;5034693;28;20227;-76
2023/04/21 13:46:13;;;;;;;11.68;3.30;;;;;;;;;;5018093;28;20041;-77
2023/04/21 13:48:40;;;;;;;10.05;2.97;;;;;;;;;;5034823;28;20067;-76
2023/04/21 13:51:06;;;;;;;12.63;3.03;;;;;;;;;;5050695;28;20162;-77
2023/04/21 13:53:32;;;;;;;11.10;3.22;;;;;;;;;;5046454;28;20487;-76
2023/04/21 13:55:59;;;;;;;14.18;3.28;;;;;;;;;;5042957;28;20037;-76
2023/04/21 13:58:25;;;;;;;14.68;3.22;;;;;;;;;;5051116;28;20044;-76
2023/04/21 14:00:51;;;;;;;12.85;3.25;;;;;;;;;;5034316;28;20401;-76
2023/04/21 14:03:17;;;;;;;7.63;3.30;;;;;;;;;;5052270;28;20041;-76
2023/04/21 14:05:44;;;;;;;7.72;3.33;;;;;;;;;;5033563;28;20092;-75
2023/04/21 14:08:10;;;;;;;9.95;3.35;;;;;;;;;;5034712;28;20045;-75
2023/04/21 14:10:36;;;;;;;7.15;3.13;;;;;;;;;;5017415;28;20092;-76
2023/04/21 14:13:02;;;;;;;14.20;3.22;;;;;;;;;;5052255;28;20041;-76
2023/04/21 14:15:28;;;;;;;10.10;3.60;;;;;;;;;;5034308;28;20041;-76
2023/04/21 14:17:55;;;;;;;9.95;3.17;;;;;;;;;;5035105;28;20045;-76
2023/04/21 14:20:22;;;;;;;16.85;3.70;;;;;;;;;;5054144;28;20053;-76
2023/04/21 14:22:48;;;;;;;13.95;3.83;;;;;;;;;;5037879;28;20127;-75